aviador You're here:

KVAD Decoded Metar

VALDOSTA in GA, USA
Report Time2017-07-23 05:58:00
UTC Time2017-07-23 06:52:42
Flight Rules vfr VFR
Wind220° at 06 kt
W.Decomp.*RWY 18: 4.4 kt HW 4.1 kt RCW
W.Rank220° ranks 10
Current wind is below 220° avg. (6.3)
Visibility9999 m
Phenomena:N/A
Clouds:N/A
Expected CloudBase > 400 ft AGL from Temp-Dew spread
CeilingNone
Temp25°C (ISA +10)
Dew Point24°C (94% RH)
QNH1016 hPa
Density Alt1,736 ft
Elevation233 ft
Report Wrong Elevation
Raw Report
KVAD 230558Z AUTO 22006KT 10SM CLR 25/24 A2999 RMK AO2 SLP155
T02500240 10288 20247 57005 $=

Extra information for KVAD:More info

Metar Taf Metar & Taf Last 4 Metars F.Rules Stats Wind Profile Meteogram Temp Stats Airport Information Weather charts Add Link Nearby VenuesMetar ALERT Operation Metar Decoded Social comments

AIRNAV info for KVAD